createdAt,value
2022-10-20T00:00:09.847Z,527.6
2022-10-20T00:01:16.381Z,522.2
2022-10-20T00:02:22.965Z,523.8
2022-10-20T00:03:29.460Z,523.6
2022-10-20T00:04:36.000Z,515.3
2022-10-20T00:05:42.547Z,522.3
2022-10-20T00:06:49.079Z,520.3
2022-10-20T00:07:55.624Z,518
2022-10-20T00:09:02.164Z,519.9
2022-10-20T00:10:08.707Z,515.2
2022-10-20T00:11:15.238Z,521.2
2022-10-20T00:12:22.019Z,521.5
2022-10-20T00:13:28.800Z,519.5
2022-10-20T00:14:35.582Z,521.7
2022-10-20T00:15:42.361Z,512
2022-10-20T00:16:49.126Z,528.3
2022-10-20T00:17:55.951Z,522.4
2022-10-20T00:19:02.680Z,519
2022-10-20T00:20:09.478Z,525.3
2022-10-20T00:21:16.236Z,525
2022-10-20T00:22:23.039Z,523.4
2022-10-20T00:23:29.791Z,520.6
2022-10-20T00:24:36.574Z,516.3
2022-10-20T00:25:43.342Z,520.9
2022-10-20T00:29:01.543Z,521.4
2022-10-20T00:30:39.551Z,525.2
2022-10-20T00:31:46.098Z,524.9
2022-10-20T00:32:52.622Z,517.8
2022-10-20T00:33:59.184Z,521.4
2022-10-20T00:35:05.702Z,520.4
2022-10-20T00:36:12.240Z,522.2
2022-10-20T00:37:18.780Z,525.8
2022-10-20T00:38:25.326Z,521.3
2022-10-20T00:39:31.876Z,526.1
2022-10-20T00:40:38.401Z,519.6
2022-10-20T00:41:44.939Z,515.7
2022-10-20T00:42:51.470Z,516.8
2022-10-20T00:43:58.039Z,520.8
2022-10-20T00:45:04.538Z,517.6
2022-10-20T00:46:11.083Z,521.8
2022-10-20T00:47:17.651Z,519.2
2022-10-20T00:48:24.198Z,516.6
2022-10-20T00:49:30.688Z,522.9
2022-10-20T00:50:37.226Z,519
2022-10-20T00:51:43.756Z,515.3
2022-10-20T00:52:50.331Z,518.5
2022-10-20T00:53:56.830Z,527.8
2022-10-20T00:55:03.359Z,524.9
2022-10-20T00:56:09.900Z,523.1
2022-10-20T00:57:16.438Z,521.9
2022-10-20T00:58:23.220Z,522.8
2022-10-20T00:59:29.994Z,520.3
2022-10-20T01:00:36.779Z,525.6
2022-10-20T01:01:43.551Z,517.1
2022-10-20T01:02:50.333Z,520.4
2022-10-20T01:03:57.098Z,523.1
2022-10-20T01:05:03.888Z,523
2022-10-20T01:06:10.658Z,520.9
2022-10-20T01:07:17.432Z,522
2022-10-20T01:08:24.205Z,523.9
2022-10-20T01:09:30.984Z,519.6
2022-10-20T01:10:37.766Z,524.3
2022-10-20T01:11:44.548Z,524.1
2022-10-20T01:15:02.771Z,524.4
2022-10-20T01:16:41.496Z,520.3
2022-10-20T01:17:47.447Z,528
2022-10-20T01:18:53.875Z,519.2
2022-10-20T01:20:00.285Z,517.7
2022-10-20T01:21:06.697Z,518.5
2022-10-20T01:22:13.118Z,522.3
2022-10-20T01:23:19.541Z,520.8
2022-10-20T01:24:25.961Z,519.5
2022-10-20T01:25:32.379Z,527.2
2022-10-20T01:26:38.813Z,521.6
2022-10-20T01:28:51.648Z,521.9
2022-10-20T01:29:58.078Z,519.1
2022-10-20T01:31:04.491Z,523.3
2022-10-20T01:32:10.937Z,527.3
2022-10-20T01:33:17.333Z,521.4
2022-10-20T01:34:23.811Z,522.8
2022-10-20T01:35:30.181Z,521.7
2022-10-20T01:36:36.590Z,524.9
2022-10-20T01:37:43.012Z,524.6
2022-10-20T01:38:49.451Z,515.4
2022-10-20T01:39:55.855Z,523.9
2022-10-20T01:41:02.275Z,517.4
2022-10-20T01:42:08.702Z,524.3
2022-10-20T01:43:15.135Z,522.4
2022-10-20T01:44:21.560Z,522.6
2022-10-20T01:45:28.100Z,527
2022-10-20T01:46:34.642Z,519.4
2022-10-20T01:47:41.253Z,526.4
2022-10-20T01:48:47.725Z,524.5
2022-10-20T01:49:54.267Z,522.8
2022-10-20T01:51:00.806Z,523.2
2022-10-20T01:52:07.346Z,517
2022-10-20T01:53:13.887Z,520.7
2022-10-20T01:54:20.437Z,518.9
2022-10-20T01:55:26.987Z,524
2022-10-20T01:56:33.523Z,528.3
2022-10-20T01:57:40.062Z,521
2022-10-20T01:58:46.597Z,521.9
2022-10-20T02:00:20.308Z,517
2022-10-20T02:01:27.041Z,518.6
2022-10-20T02:02:33.819Z,523.1
2022-10-20T02:03:40.588Z,520.6
2022-10-20T02:04:47.365Z,525.7
2022-10-20T02:05:54.138Z,520.7
2022-10-20T02:07:00.935Z,521.2
2022-10-20T02:08:07.701Z,526.8
2022-10-20T02:09:14.476Z,518.7
2022-10-20T02:10:21.273Z,525.1
2022-10-20T02:11:28.038Z,524.8
2022-10-20T02:12:34.816Z,524
2022-10-20T02:13:41.586Z,522.4
2022-10-20T02:16:59.800Z,520.7
2022-10-20T02:18:37.797Z,521.5
2022-10-20T02:19:44.341Z,522.5
2022-10-20T02:20:50.879Z,522.6
2022-10-20T02:21:57.412Z,525.3
2022-10-20T02:23:03.949Z,521.2
2022-10-20T02:24:10.501Z,528.9
2022-10-20T02:25:17.046Z,523.9
2022-10-20T02:26:23.575Z,520.6
2022-10-20T02:27:30.110Z,517.9
2022-10-20T02:28:36.673Z,519
2022-10-20T02:29:43.208Z,522.5
2022-10-20T02:30:49.797Z,527.3
2022-10-20T02:31:56.258Z,522.4
2022-10-20T02:33:02.792Z,523.6
2022-10-20T02:34:09.326Z,522.6
2022-10-20T02:35:15.863Z,520
2022-10-20T02:37:28.934Z,519.5
2022-10-20T02:38:35.462Z,522.1
2022-10-20T02:39:42.043Z,521.5
2022-10-20T02:40:48.532Z,525.8
2022-10-20T02:41:55.075Z,523.1
2022-10-20T02:43:01.611Z,521
2022-10-20T02:44:08.153Z,520.1
2022-10-20T02:45:14.701Z,521.3
2022-10-20T02:46:21.478Z,526.8
2022-10-20T02:47:28.258Z,525.7
2022-10-20T02:48:35.044Z,523.7
2022-10-20T02:49:41.811Z,524
2022-10-20T02:50:48.598Z,518.6
2022-10-20T02:51:55.369Z,522
2022-10-20T02:53:02.145Z,520.4
2022-10-20T02:54:08.929Z,526.7
2022-10-20T02:55:15.715Z,522.7
2022-10-20T02:56:22.493Z,521.7
2022-10-20T02:57:29.263Z,521.5
2022-10-20T02:58:36.045Z,518.5
2022-10-20T02:59:42.812Z,521.8
2022-10-20T03:03:01.000Z,523.7
2022-10-20T03:04:38.899Z,530.8
2022-10-20T03:05:45.318Z,522.4
2022-10-20T03:06:51.736Z,516.9
2022-10-20T03:07:58.167Z,523.6
2022-10-20T03:09:04.575Z,523.8
2022-10-20T03:10:10.995Z,523.2
2022-10-20T03:11:17.419Z,521.3
2022-10-20T03:12:23.838Z,519.4
2022-10-20T03:13:30.263Z,527.2
2022-10-20T03:14:36.675Z,521.9
2022-10-20T03:15:43.094Z,523.7
2022-10-20T03:16:49.504Z,521.6
2022-10-20T03:17:55.932Z,522.8
2022-10-20T03:19:02.348Z,524.5
2022-10-20T03:20:08.763Z,524.9
2022-10-20T03:21:15.183Z,517.9
2022-10-20T03:22:21.600Z,529.4
2022-10-20T03:23:28.019Z,518.5
2022-10-20T03:24:34.443Z,520.9
2022-10-20T03:25:40.866Z,524.6
2022-10-20T03:26:47.295Z,525.9
2022-10-20T03:27:53.712Z,521.2
2022-10-20T03:29:00.141Z,521
2022-10-20T03:30:06.557Z,532.5
2022-10-20T03:32:19.527Z,521.8
2022-10-20T03:33:26.072Z,524.5
2022-10-20T03:34:32.660Z,523.5
2022-10-20T03:35:39.149Z,521.4
2022-10-20T03:36:45.701Z,518.3
2022-10-20T03:37:52.245Z,522.9
2022-10-20T03:38:58.782Z,528.4
2022-10-20T03:40:05.321Z,528.9
2022-10-20T03:41:11.863Z,523.3
2022-10-20T03:42:18.401Z,521.2
2022-10-20T03:43:24.932Z,525.9
2022-10-20T03:44:31.478Z,520.8
2022-10-20T03:45:38.038Z,527.7
2022-10-20T03:47:11.238Z,524.3
2022-10-20T03:48:18.010Z,526.8
2022-10-20T03:49:24.784Z,523.1
2022-10-20T03:50:31.555Z,523.3
2022-10-20T03:51:38.363Z,526.7
2022-10-20T03:52:45.115Z,519
2022-10-20T03:53:51.883Z,527.2
2022-10-20T03:54:58.662Z,520.1
2022-10-20T03:56:05.435Z,525.9
2022-10-20T03:57:12.205Z,521.5
2022-10-20T03:58:18.973Z,526.8
2022-10-20T03:59:25.737Z,527.8
2022-10-20T04:00:32.520Z,523.2
2022-10-20T04:03:50.693Z,519
2022-10-20T04:05:28.608Z,524.1
2022-10-20T04:06:35.001Z,524.7
2022-10-20T04:07:41.430Z,523.8
2022-10-20T04:08:47.818Z,524.1
2022-10-20T04:09:54.253Z,526.5
2022-10-20T04:11:00.701Z,520.1
2022-10-20T04:12:07.076Z,519.4
2022-10-20T04:13:13.496Z,524.4
2022-10-20T04:14:19.918Z,526
2022-10-20T04:15:26.337Z,528.1
2022-10-20T04:16:32.761Z,525.5
2022-10-20T04:17:39.181Z,524.9
2022-10-20T04:18:45.592Z,524.5
2022-10-20T04:19:52.007Z,516.8
2022-10-20T04:20:58.427Z,522.6
2022-10-20T04:22:04.841Z,524
2022-10-20T04:23:11.268Z,518.7
2022-10-20T04:24:17.673Z,522.7
2022-10-20T04:25:24.085Z,520
2022-10-20T04:26:30.498Z,525.8
2022-10-20T04:27:36.919Z,526.1
2022-10-20T04:28:43.334Z,522.8
2022-10-20T04:29:49.752Z,524.3
2022-10-20T04:30:56.176Z,521.4
2022-10-20T04:32:02.593Z,521.6
2022-10-20T04:33:09.161Z,521.6
2022-10-20T04:34:15.694Z,523.7
2022-10-20T04:35:22.226Z,524.5
2022-10-20T04:36:28.775Z,520.3
2022-10-20T04:37:35.308Z,521.4
2022-10-20T04:38:41.840Z,526.3
2022-10-20T04:39:48.375Z,521.2
2022-10-20T04:40:54.910Z,523.6
2022-10-20T04:42:01.451Z,522.9
2022-10-20T04:43:07.985Z,516.2
2022-10-20T04:44:14.546Z,529
2022-10-20T04:45:21.060Z,524.6
2022-10-20T04:46:27.600Z,523.5
2022-10-20T04:48:01.023Z,525.2
2022-10-20T04:49:07.748Z,524.9
2022-10-20T04:50:14.510Z,521.5
2022-10-20T04:51:21.284Z,526.6
2022-10-20T04:52:28.052Z,522
2022-10-20T04:53:34.832Z,527.3
2022-10-20T04:54:41.611Z,525.1
2022-10-20T04:55:48.382Z,527
2022-10-20T04:56:55.163Z,520.6
2022-10-20T04:58:01.934Z,526
2022-10-20T04:59:08.862Z,521.3
2022-10-20T05:00:15.479Z,522.4
2022-10-20T05:01:22.263Z,524.9
2022-10-20T05:04:40.436Z,523
2022-10-20T05:06:18.458Z,523
2022-10-20T05:07:25.013Z,518.5
2022-10-20T05:08:31.532Z,520.7
2022-10-20T05:09:38.082Z,526.5
2022-10-20T05:10:44.599Z,520.4
2022-10-20T05:11:51.142Z,517.5
2022-10-20T05:12:57.683Z,525.9
2022-10-20T05:14:04.233Z,521.5
2022-10-20T05:16:17.339Z,525
2022-10-20T05:17:23.836Z,515.9
2022-10-20T05:18:30.374Z,525
2022-10-20T05:19:36.912Z,523.9
2022-10-20T05:20:43.447Z,522.2
2022-10-20T05:21:49.987Z,522.7
2022-10-20T05:22:56.538Z,519.9
2022-10-20T05:24:03.075Z,524.8
2022-10-20T05:25:09.601Z,518.7
2022-10-20T05:26:16.239Z,519.2
2022-10-20T05:27:22.770Z,520.8
2022-10-20T05:28:29.221Z,525.4
2022-10-20T05:29:35.755Z,527.5
2022-10-20T05:30:42.396Z,520.6
2022-10-20T05:31:48.866Z,523.4
2022-10-20T05:32:55.490Z,525.2
2022-10-20T05:34:02.290Z,524.8
2022-10-20T05:35:08.926Z,530.4
2022-10-20T05:36:15.833Z,526.9
2022-10-20T05:37:22.470Z,520.7
2022-10-20T05:38:29.255Z,524.7
2022-10-20T05:39:36.021Z,521.5
2022-10-20T05:40:42.948Z,530.4
2022-10-20T05:41:49.666Z,523.7
2022-10-20T05:42:56.496Z,522.5
2022-10-20T05:44:03.271Z,529.3
2022-10-20T05:45:09.900Z,522.7
2022-10-20T05:46:16.845Z,518.8
2022-10-20T05:47:23.591Z,523.9
2022-10-20T05:50:41.778Z,519.2
2022-10-20T05:52:20.002Z,520.8
2022-10-20T05:53:26.650Z,525.9
2022-10-20T05:54:33.580Z,522.9
2022-10-20T05:55:40.349Z,521.4
2022-10-20T05:56:47.121Z,525.1
2022-10-20T05:57:53.896Z,526.6
2022-10-20T05:59:00.674Z,525.5
2022-10-20T06:00:07.443Z,528
2022-10-20T06:01:14.237Z,528.5
2022-10-20T06:02:20.988Z,519.8
2022-10-20T06:03:27.783Z,520.9
2022-10-20T06:04:34.569Z,523.1
2022-10-20T06:05:41.343Z,529.3
2022-10-20T06:06:48.100Z,524.8
2022-10-20T06:07:54.873Z,526.2
2022-10-20T06:09:01.501Z,525.1
2022-10-20T06:10:08.378Z,523.3
2022-10-20T06:11:15.044Z,526.9
2022-10-20T06:12:21.954Z,527.5
2022-10-20T06:13:28.748Z,520
2022-10-20T06:14:35.439Z,532.1
2022-10-20T06:15:42.265Z,523.9
2022-10-20T06:16:48.926Z,529.8
2022-10-20T06:17:55.859Z,529.3
2022-10-20T06:19:02.584Z,525.9
2022-10-20T06:21:14.861Z,530
2022-10-20T06:22:20.954Z,529.9
2022-10-20T06:23:27.465Z,531.1
2022-10-20T06:24:34.026Z,524.5
2022-10-20T06:25:40.585Z,530.4
2022-10-20T06:26:47.119Z,530.8
2022-10-20T06:27:53.672Z,532
2022-10-20T06:29:00.162Z,534.5
2022-10-20T06:30:06.713Z,528.7
2022-10-20T06:31:13.257Z,530.5
2022-10-20T06:32:19.824Z,526.2
2022-10-20T06:33:26.367Z,530.9
2022-10-20T06:34:32.913Z,529.6
2022-10-20T06:35:39.446Z,528.4
2022-10-20T06:36:45.843Z,530.2
2022-10-20T06:37:52.477Z,534.7
2022-10-20T06:38:59.071Z,528.1
2022-10-20T06:40:05.594Z,533.7
2022-10-20T06:41:12.157Z,527.4
2022-10-20T06:42:18.673Z,531.6
2022-10-20T06:43:25.105Z,531.2
2022-10-20T06:44:31.725Z,532.6
2022-10-20T06:45:38.273Z,542.7
2022-10-20T06:46:44.697Z,531.8
2022-10-20T06:47:51.303Z,541.7
2022-10-20T06:48:57.904Z,536.4
2022-10-20T06:50:04.633Z,536.3
2022-10-20T06:51:11.450Z,535.9
2022-10-20T06:52:18.207Z,532
2022-10-20T06:53:24.850Z,541.9
2022-10-20T06:54:31.611Z,535.2
2022-10-20T06:55:38.385Z,537.2
2022-10-20T06:56:45.334Z,538.5
2022-10-20T06:57:52.106Z,538.3
2022-10-20T06:58:58.866Z,539.1
2022-10-20T07:00:05.493Z,532.3
2022-10-20T07:01:12.368Z,533.3
2022-10-20T07:02:19.191Z,537.1
2022-10-20T07:03:25.966Z,540.2
2022-10-20T07:04:33.249Z,537.4
2022-10-20T07:06:11.281Z,537.9
2022-10-20T07:07:17.761Z,537.8
2022-10-20T07:08:24.337Z,537.5
2022-10-20T07:09:30.875Z,536.1
2022-10-20T07:10:37.406Z,540.9
2022-10-20T07:11:43.954Z,535.4
2022-10-20T07:12:50.433Z,537.3
2022-10-20T07:13:57.019Z,538.4
2022-10-20T07:15:03.545Z,539.9
2022-10-20T07:16:10.103Z,540.3
2022-10-20T07:17:16.487Z,538.5
2022-10-20T07:18:23.166Z,540.2
2022-10-20T07:19:29.718Z,540.6
2022-10-20T07:20:36.107Z,538.7
2022-10-20T07:21:42.790Z,544.3
2022-10-20T07:22:49.316Z,540.6
2022-10-20T07:23:55.762Z,543.4
2022-10-20T07:25:02.260Z,536.7
2022-10-20T07:26:08.879Z,539
2022-10-20T07:27:15.364Z,542.4
2022-10-20T07:28:21.988Z,536.4
2022-10-20T07:29:28.410Z,539.5
2022-10-20T07:30:35.048Z,543.8
2022-10-20T07:31:41.638Z,541.4
2022-10-20T07:32:48.045Z,543.8
2022-10-20T07:33:54.948Z,543.4
2022-10-20T07:35:01.587Z,547.5
2022-10-20T07:36:08.497Z,546.2
2022-10-20T07:37:15.257Z,546.7
2022-10-20T07:38:21.983Z,547
2022-10-20T07:39:28.805Z,543.6
2022-10-20T07:40:35.442Z,546.8
2022-10-20T07:41:42.321Z,544
2022-10-20T07:42:49.192Z,551.2
2022-10-20T07:43:55.916Z,547
2022-10-20T07:45:02.666Z,549.2
2022-10-20T07:46:09.400Z,547.8
2022-10-20T07:47:16.184Z,544.4
2022-10-20T07:50:34.401Z,550.7
2022-10-20T07:52:09.889Z,550.2
2022-10-20T07:53:17.013Z,546.9
2022-10-20T07:54:55.816Z,548.6
2022-10-20T07:56:34.494Z,548.8
2022-10-20T07:58:13.319Z,548.7
2022-10-20T07:59:52.080Z,550.1
2022-10-20T08:01:30.783Z,549
2022-10-20T08:03:09.390Z,548.1
2022-10-20T08:04:48.325Z,549
2022-10-20T08:06:26.862Z,549.9
2022-10-20T08:08:05.767Z,552.8
2022-10-20T08:09:13.003Z,553.3
2022-10-20T08:12:13.718Z,549
2022-10-20T08:15:29.327Z,551
2022-10-20T08:16:37.460Z,551.5
2022-10-20T08:17:42.200Z,553.3
2022-10-20T08:18:48.571Z,554
2022-10-20T08:20:03.687Z,557.1
2022-10-20T08:21:01.550Z,556.2
2022-10-20T08:22:07.913Z,560
2022-10-20T08:23:14.399Z,553.6
2022-10-20T08:24:20.816Z,555.2
2022-10-20T08:25:27.216Z,556.2
2022-10-20T08:26:33.665Z,558
2022-10-20T08:27:40.064Z,558.4
2022-10-20T08:28:46.572Z,557.2
2022-10-20T08:29:52.991Z,555.9
2022-10-20T08:30:59.439Z,560.7
2022-10-20T08:32:05.798Z,558.6
2022-10-20T08:33:12.274Z,563.1
2022-10-20T08:34:18.719Z,560.9
2022-10-20T08:35:25.110Z,560.8
2022-10-20T08:36:31.515Z,561.8
2022-10-20T08:37:37.998Z,562.6
2022-10-20T08:38:44.426Z,562.3
2022-10-20T08:39:50.927Z,557.5
2022-10-20T08:40:57.240Z,564
2022-10-20T08:42:03.664Z,563.6
2022-10-20T08:43:10.349Z,562
2022-10-20T08:44:16.828Z,570.3
2022-10-20T08:45:23.409Z,563.5
2022-10-20T08:46:29.929Z,565.8
2022-10-20T08:47:36.546Z,561.3
2022-10-20T08:48:43.054Z,564.2
2022-10-20T08:49:49.672Z,566.6
2022-10-20T08:50:56.147Z,565.8
2022-10-20T08:52:02.743Z,561.1
2022-10-20T08:53:09.217Z,566.8
2022-10-20T08:54:15.812Z,567.8
2022-10-20T08:55:22.317Z,564.5
2022-10-20T08:56:28.876Z,563.6
2022-10-20T08:57:35.759Z,566.5
2022-10-20T08:58:42.500Z,570.1
2022-10-20T08:59:49.254Z,571.3
2022-10-20T09:00:56.057Z,569.4
2022-10-20T09:02:02.831Z,572.4
2022-10-20T09:03:09.641Z,570.4
2022-10-20T09:04:16.451Z,571.5
2022-10-20T09:05:23.207Z,567.8
2022-10-20T09:06:30.023Z,571.5
2022-10-20T09:07:36.859Z,569.3
2022-10-20T09:08:43.602Z,571.8
2022-10-20T09:09:50.469Z,567.7
2022-10-20T09:10:57.209Z,566.7
2022-10-20T09:13:35.888Z,568.5
2022-10-20T09:15:14.484Z,570.2
2022-10-20T09:16:53.294Z,571
2022-10-20T09:18:31.959Z,570.4
2022-10-20T09:19:39.223Z,572.1
2022-10-20T09:20:46.549Z,568.3
2022-10-20T09:22:25.232Z,569.6
2022-10-20T09:24:03.995Z,573.2
2022-10-20T09:25:42.714Z,569.8
2022-10-20T09:27:21.450Z,565.8
2022-10-20T09:29:00.194Z,568.7
2022-10-20T09:30:38.922Z,572.9
2022-10-20T09:32:17.737Z,575.6
2022-10-20T09:36:07.261Z,573.9
2022-10-20T09:37:13.876Z,577.4
2022-10-20T09:38:20.409Z,576.8
2022-10-20T09:39:26.964Z,574.9
2022-10-20T09:40:33.549Z,575.8
2022-10-20T09:41:40.073Z,576.7
2022-10-20T09:42:46.651Z,575.1
2022-10-20T09:43:53.197Z,577.4
2022-10-20T09:44:59.741Z,584.5
2022-10-20T09:46:06.296Z,579.3
2022-10-20T09:47:12.852Z,575.7
2022-10-20T09:48:19.418Z,578.3
2022-10-20T09:49:25.985Z,578.2
2022-10-20T09:50:32.506Z,578.1
2022-10-20T09:51:39.062Z,579.6
2022-10-20T09:52:45.617Z,579.4
2022-10-20T09:53:52.184Z,576.3
2022-10-20T09:54:58.744Z,580.5
2022-10-20T09:56:05.387Z,581.7
2022-10-20T09:57:11.831Z,582.3
2022-10-20T09:58:18.378Z,579.6
2022-10-20T09:59:24.974Z,579.6
2022-10-20T10:00:31.500Z,579.2
2022-10-20T10:01:38.144Z,584.8
2022-10-20T10:02:44.718Z,583.8
2022-10-20T10:03:51.185Z,582.4
2022-10-20T10:04:57.931Z,583.4
2022-10-20T10:06:04.726Z,584.9
2022-10-20T10:07:11.499Z,580.7
2022-10-20T10:08:18.292Z,583.6
2022-10-20T10:09:25.075Z,588.6
2022-10-20T10:10:31.916Z,588.6
2022-10-20T10:11:38.726Z,588.2
2022-10-20T10:12:45.573Z,587.1
2022-10-20T10:13:52.379Z,587.6
2022-10-20T10:14:59.010Z,584.1
2022-10-20T10:16:05.960Z,585.7
2022-10-20T10:17:12.626Z,585.7
2022-10-20T10:18:19.455Z,583.7
2022-10-20T10:20:58.342Z,582.2
2022-10-20T10:22:37.196Z,582.8
2022-10-20T10:24:15.858Z,584.3
2022-10-20T10:25:54.623Z,582.7
2022-10-20T10:27:01.864Z,585.6
2022-10-20T10:28:09.156Z,584.2
2022-10-20T10:29:47.806Z,581.5
2022-10-20T10:31:26.568Z,585.9
2022-10-20T10:33:05.323Z,582.7
2022-10-20T10:34:44.069Z,584.9
2022-10-20T10:36:22.770Z,583.3
2022-10-20T10:38:01.602Z,586.4
2022-10-20T10:39:40.271Z,586.5
2022-10-20T10:43:29.792Z,583.8
2022-10-20T10:44:36.299Z,584.3
2022-10-20T10:45:42.738Z,589.7
2022-10-20T10:46:49.217Z,586.6
2022-10-20T10:47:55.644Z,585.4
2022-10-20T10:49:01.997Z,583.5
2022-10-20T10:50:08.435Z,584
2022-10-20T10:51:14.901Z,586.2
2022-10-20T10:52:21.326Z,584.9
2022-10-20T10:53:27.815Z,588.1
2022-10-20T10:54:34.178Z,587
2022-10-20T10:55:40.671Z,587
2022-10-20T10:56:47.036Z,586.5
2022-10-20T10:57:53.467Z,586.4
2022-10-20T10:58:59.906Z,589.9
2022-10-20T11:00:06.326Z,588.1
2022-10-20T11:01:12.767Z,585
2022-10-20T11:02:19.208Z,586.4
2022-10-20T11:03:25.628Z,587.8
2022-10-20T11:04:32.098Z,584.5
2022-10-20T11:05:38.489Z,587.3
2022-10-20T11:06:44.944Z,585
2022-10-20T11:07:51.366Z,586.5
2022-10-20T11:08:57.842Z,587.6
2022-10-20T11:10:04.254Z,587.6
2022-10-20T11:11:10.685Z,590.6
2022-10-20T11:12:17.249Z,591
2022-10-20T11:13:23.768Z,588.5
2022-10-20T11:14:30.306Z,589.3
2022-10-20T11:15:36.898Z,591.2
2022-10-20T11:16:43.420Z,590
2022-10-20T11:17:49.973Z,592.6
2022-10-20T11:18:56.521Z,589.3
2022-10-20T11:20:03.119Z,588.4
2022-10-20T11:21:09.642Z,586.8
2022-10-20T11:22:16.184Z,591.3
2022-10-20T11:23:22.721Z,587.9
2022-10-20T11:24:29.278Z,589.4
2022-10-20T11:25:35.841Z,588.9
2022-10-20T11:27:25.206Z,589.9
2022-10-20T11:28:31.983Z,587.5
2022-10-20T11:29:38.760Z,588.6
2022-10-20T11:30:45.502Z,590.6
2022-10-20T11:31:52.299Z,589.6
2022-10-20T11:32:59.083Z,588.9
2022-10-20T11:34:05.884Z,592.5
2022-10-20T11:35:12.758Z,592.2
2022-10-20T11:36:19.469Z,591.7
2022-10-20T11:37:26.261Z,590.1
2022-10-20T11:38:33.022Z,590
2022-10-20T11:39:39.809Z,590.3
2022-10-20T11:40:46.620Z,589.8
2022-10-20T11:44:04.756Z,588.8
2022-10-20T11:45:40.274Z,590.1
2022-10-20T11:46:47.513Z,589.6
2022-10-20T11:48:26.257Z,586.7
2022-10-20T11:50:04.972Z,590
2022-10-20T11:51:43.785Z,590.1
2022-10-20T11:53:22.483Z,590
2022-10-20T11:55:01.162Z,589.4
2022-10-20T11:56:39.905Z,587.6
2022-10-20T11:58:18.621Z,587
2022-10-20T11:59:57.413Z,587.5
2022-10-20T12:01:36.089Z,588.4
2022-10-20T12:02:43.349Z,589.1
2022-10-20T12:05:44.214Z,588.5
2022-10-20T12:08:59.832Z,587.4
2022-10-20T12:10:06.373Z,589.4
2022-10-20T12:11:12.921Z,589
2022-10-20T12:12:19.481Z,589.1
2022-10-20T12:13:26.035Z,586.4
2022-10-20T12:14:32.574Z,588.6
2022-10-20T12:15:39.118Z,590
2022-10-20T12:16:45.683Z,589.6
2022-10-20T12:17:52.261Z,588.4
2022-10-20T12:18:58.770Z,587.4
2022-10-20T12:20:05.331Z,586.1
2022-10-20T12:21:11.977Z,586.1
2022-10-20T12:22:18.540Z,587.7
2022-10-20T12:23:24.984Z,588.3
2022-10-20T12:24:31.528Z,583.9
2022-10-20T12:25:38.078Z,587.5
2022-10-20T12:26:44.624Z,585.7
2022-10-20T12:27:51.181Z,586.1
2022-10-20T12:28:57.733Z,587.4
2022-10-20T12:30:04.282Z,584.1
2022-10-20T12:31:10.868Z,581.5
2022-10-20T12:32:17.394Z,582.1
2022-10-20T12:33:23.951Z,580.8
2022-10-20T12:34:30.516Z,580
2022-10-20T12:35:37.042Z,582.9
2022-10-20T12:36:43.951Z,583.1
2022-10-20T12:37:50.622Z,581.1
2022-10-20T12:38:57.403Z,581.8
2022-10-20T12:40:04.196Z,579.5
2022-10-20T12:41:11.011Z,580.6
2022-10-20T12:42:17.869Z,579.7
2022-10-20T12:43:24.551Z,581
2022-10-20T12:44:31.345Z,580.6
2022-10-20T12:45:38.140Z,579.4
2022-10-20T12:46:44.902Z,586.3
2022-10-20T12:47:51.694Z,581.4
2022-10-20T12:48:58.488Z,582.3
2022-10-20T12:50:05.290Z,580.8
2022-10-20T12:51:12.609Z,580.7
2022-10-20T12:52:51.320Z,578.6
2022-10-20T12:54:30.136Z,581.3
2022-10-20T12:56:08.793Z,581.7
2022-10-20T12:57:47.541Z,584.1
2022-10-20T12:59:26.264Z,581.7
2022-10-20T13:01:05.026Z,580.9
2022-10-20T13:02:43.740Z,584.2
2022-10-20T13:04:22.489Z,583.6
2022-10-20T13:06:01.233Z,583.1
2022-10-20T13:07:39.941Z,583.6
2022-10-20T13:09:18.674Z,582.5
2022-10-20T13:10:57.418Z,584.8
2022-10-20T13:15:05.409Z,583.5
2022-10-20T13:16:12.235Z,582.4
2022-10-20T13:18:21.306Z,581
2022-10-20T13:19:28.095Z,581.5
2022-10-20T13:20:34.891Z,584
2022-10-20T13:21:41.703Z,583.9
2022-10-20T13:22:48.573Z,582.7
2022-10-20T13:23:55.253Z,582.9
2022-10-20T13:25:02.043Z,581.5
2022-10-20T13:26:08.867Z,582.8
2022-10-20T13:27:15.629Z,585.6
2022-10-20T13:28:22.407Z,583.1
2022-10-20T13:29:29.231Z,583.1
2022-10-20T13:30:35.987Z,583.2
2022-10-20T13:31:42.775Z,581.6
2022-10-20T13:32:49.566Z,579.5
2022-10-20T13:33:56.359Z,582.7
2022-10-20T13:35:03.156Z,582.7
2022-10-20T13:36:09.929Z,586.9
2022-10-20T13:37:16.721Z,582
2022-10-20T13:38:23.511Z,581.9
2022-10-20T13:39:30.358Z,580.4
2022-10-20T13:40:37.073Z,583.3
2022-10-20T13:41:43.893Z,580.7
2022-10-20T13:42:50.637Z,582.5
2022-10-20T13:43:57.428Z,582.5
2022-10-20T13:46:09.622Z,580.8
2022-10-20T13:47:48.354Z,581.6
2022-10-20T13:49:27.091Z,580.4
2022-10-20T13:51:04.636Z,578.2
2022-10-20T13:52:11.979Z,581.4
2022-10-20T13:53:50.638Z,580.2
2022-10-20T13:55:29.375Z,578.4
2022-10-20T13:57:08.112Z,580.9
2022-10-20T13:58:46.861Z,579.1
2022-10-20T14:00:25.587Z,577.8
2022-10-20T14:02:04.344Z,579.8
2022-10-20T14:03:43.061Z,581.4
2022-10-20T14:05:21.802Z,577.8
2022-10-20T14:07:32.653Z,578.1
2022-10-20T14:09:28.888Z,580.1
2022-10-20T14:11:15.726Z,577.3
2022-10-20T14:12:54.467Z,582.4
2022-10-20T14:14:33.206Z,579
2022-10-20T14:16:11.944Z,581
2022-10-20T14:17:50.673Z,582.1
2022-10-20T14:19:29.418Z,580
2022-10-20T14:21:08.165Z,579.9
2022-10-20T14:22:46.921Z,581.6
2022-10-20T14:24:25.614Z,580.6
2022-10-20T14:26:04.360Z,580.2
2022-10-20T14:27:43.080Z,584.1
2022-10-20T14:29:21.809Z,579.6
2022-10-20T14:31:00.535Z,580.3
2022-10-20T14:32:39.259Z,582.8
2022-10-20T14:34:17.981Z,581.4
2022-10-20T14:35:56.715Z,580.6
2022-10-20T14:37:35.454Z,583.1
2022-10-20T14:39:14.258Z,579.6
2022-10-20T14:40:25.717Z,582.8
2022-10-20T14:41:32.939Z,580.7
2022-10-20T14:43:11.684Z,583.8
2022-10-20T14:44:50.551Z,583.1
2022-10-20T14:46:29.296Z,580.5
2022-10-20T14:48:07.936Z,586
2022-10-20T14:52:15.987Z,583.5
2022-10-20T14:55:31.541Z,583.6
2022-10-20T14:56:38.117Z,586.6
2022-10-20T14:57:44.639Z,584.3
2022-10-20T14:58:51.193Z,584.9
2022-10-20T14:59:57.742Z,585.6
2022-10-20T15:01:04.288Z,585.3
2022-10-20T15:02:10.835Z,582.2
2022-10-20T15:03:17.393Z,586
2022-10-20T15:04:23.943Z,586.3
2022-10-20T15:05:30.492Z,583.2
2022-10-20T15:06:37.047Z,583.3
2022-10-20T15:07:43.612Z,584.9
2022-10-20T15:08:50.145Z,581.8
2022-10-20T15:09:56.699Z,578.3
2022-10-20T15:11:03.246Z,584
2022-10-20T15:12:09.797Z,582.7
2022-10-20T15:13:16.354Z,583.1
2022-10-20T15:14:22.900Z,580.5
2022-10-20T15:15:29.452Z,586.5
2022-10-20T15:16:36.004Z,586.3
2022-10-20T15:17:42.560Z,581.4
2022-10-20T15:18:49.110Z,582.5
2022-10-20T15:19:55.657Z,581.9
2022-10-20T15:21:02.208Z,584.2
2022-10-20T15:22:08.772Z,582.2
2022-10-20T15:23:15.551Z,581.1
2022-10-20T15:24:22.339Z,580.9
2022-10-20T15:25:29.125Z,583.2
2022-10-20T15:26:35.907Z,583.2
2022-10-20T15:27:42.705Z,582.3
2022-10-20T15:28:49.492Z,583.6
2022-10-20T15:29:56.291Z,583.2
2022-10-20T15:31:03.065Z,582.9
2022-10-20T15:32:09.848Z,584.2
2022-10-20T15:33:16.638Z,582.7
2022-10-20T15:34:23.432Z,581.5
2022-10-20T15:35:30.219Z,584.6
2022-10-20T15:36:37.011Z,582.6
2022-10-20T15:39:55.161Z,583.2
2022-10-20T15:41:33.899Z,582.7
2022-10-20T15:42:41.161Z,585.5
2022-10-20T15:43:48.426Z,583.5
2022-10-20T15:45:27.149Z,583.4
2022-10-20T15:47:05.901Z,588.1
2022-10-20T15:48:44.694Z,582.7
2022-10-20T15:50:23.391Z,581.9
2022-10-20T15:52:02.078Z,585.4
2022-10-20T15:53:40.810Z,582.1
2022-10-20T15:55:19.548Z,583.1
2022-10-20T15:56:58.277Z,581.9
2022-10-20T15:58:37.009Z,583.8
2022-10-20T16:00:16.881Z,583.3
2022-10-20T16:03:32.310Z,582.6
2022-10-20T16:04:38.738Z,585.7
2022-10-20T16:05:45.182Z,581.9
2022-10-20T16:06:51.614Z,582.9
2022-10-20T16:07:58.042Z,584.8
2022-10-20T16:09:04.472Z,582.1
2022-10-20T16:10:10.916Z,584.6
2022-10-20T16:11:17.335Z,582.4
2022-10-20T16:12:23.765Z,581.5
2022-10-20T16:13:30.189Z,582.3
2022-10-20T16:14:36.619Z,582.1
2022-10-20T16:15:43.056Z,580.3
2022-10-20T16:16:49.489Z,580.5
2022-10-20T16:17:55.981Z,581.5
2022-10-20T16:19:02.407Z,578.4